createdAt,value
2022-12-04T00:03:44.257Z,44.27
2022-12-04T00:08:42.569Z,32.50
2022-12-04T00:13:41.589Z,42.97
2022-12-04T00:18:41.483Z,51.13
2022-12-04T00:23:40.181Z,46.57
2022-12-04T00:28:38.419Z,37.27
2022-12-04T00:33:36.843Z,51.10
2022-12-04T00:38:37.191Z,51.90
2022-12-04T00:43:35.388Z,46.43
2022-12-04T00:48:33.764Z,50.00
2022-12-04T00:53:32.146Z,51.33
2022-12-04T00:58:31.645Z,46.13
2022-12-04T01:03:29.913Z,50.43
2022-12-04T01:08:28.142Z,47.90
2022-12-04T01:13:27.065Z,49.30
2022-12-04T01:18:26.545Z,40.40
2022-12-04T01:23:24.721Z,43.80
2022-12-04T01:28:23.278Z,54.27
2022-12-04T01:33:21.451Z,42.80
2022-12-04T01:38:52.385Z,48.63
2022-12-04T01:44:09.467Z,47.30
2022-12-04T01:49:12.085Z,49.97
2022-12-04T01:54:16.234Z,40.07
2022-12-04T01:59:18.343Z,45.10
2022-12-04T02:04:16.525Z,46.40
2022-12-04T02:09:17.605Z,50.40
2022-12-04T02:14:27.002Z,48.53
2022-12-04T02:19:45.322Z,49.57
2022-12-04T02:24:54.036Z,48.93
2022-12-04T02:30:00.431Z,42.33
2022-12-04T02:35:03.762Z,39.97
2022-12-04T02:40:07.251Z,43.53
2022-12-04T02:45:11.286Z,50.90
2022-12-04T02:50:13.370Z,46.83
2022-12-04T02:55:17.479Z,43.27
2022-12-04T03:00:18.110Z,38.33
2022-12-04T03:05:19.397Z,45.83
2022-12-04T03:10:22.129Z,49.07
2022-12-04T03:15:27.726Z,56.37
2022-12-04T03:20:26.984Z,50.20
2022-12-04T03:25:33.230Z,49.23
2022-12-04T03:30:37.755Z,56.50
2022-12-04T03:35:42.336Z,59.40
2022-12-04T03:40:45.830Z,48.17
2022-12-04T03:45:49.789Z,53.63
2022-12-04T03:50:53.747Z,51.57
2022-12-04T03:55:57.508Z,59.07
2022-12-04T04:00:59.249Z,55.53
2022-12-04T04:06:03.080Z,55.97
2022-12-04T04:11:08.249Z,61.13
2022-12-04T04:16:28.607Z,55.07
2022-12-04T04:21:48.576Z,48.60
2022-12-04T04:26:48.443Z,60.40
2022-12-04T04:31:54.854Z,58.40
2022-12-04T04:36:59.564Z,63.53
2022-12-04T04:42:03.007Z,62.77
2022-12-04T04:47:07.307Z,63.63
2022-12-04T04:52:05.871Z,69.43
2022-12-04T04:57:04.085Z,59.80
2022-12-04T05:02:03.689Z,58.13
2022-12-04T05:07:01.909Z,57.30
2022-12-04T05:12:00.082Z,51.13
2022-12-04T05:17:01.784Z,52.63
2022-12-04T05:22:01.652Z,57.43
2022-12-04T05:26:59.851Z,55.77
2022-12-04T05:31:58.004Z,59.40
2022-12-04T05:36:56.133Z,59.80
2022-12-04T05:41:55.603Z,46.73
2022-12-04T05:46:54.169Z,47.23
2022-12-04T05:51:52.961Z,61.47
2022-12-04T05:56:51.262Z,57.90
2022-12-04T06:01:50.813Z,52.30
2022-12-04T06:06:48.995Z,52.93
2022-12-04T06:11:47.476Z,54.40
2022-12-04T06:16:47.471Z,50.87
2022-12-04T06:21:48.911Z,55.90
2022-12-04T06:27:18.856Z,48.93
2022-12-04T06:32:05.864Z,53.87
2022-12-04T06:37:05.471Z,57.83
2022-12-04T06:42:03.600Z,49.03
2022-12-04T06:47:01.737Z,54.47
2022-12-04T06:51:59.824Z,54.97
2022-12-04T06:56:59.290Z,51.63
2022-12-04T07:01:57.514Z,54.80
2022-12-04T07:06:55.801Z,46.63
2022-12-04T07:11:55.035Z,49.20
2022-12-04T07:16:54.636Z,57.33
2022-12-04T07:21:52.836Z,55.60
2022-12-04T07:26:51.062Z,59.73
2022-12-04T07:31:49.259Z,56.40
2022-12-04T07:36:48.821Z,56.50
2022-12-04T07:41:47.003Z,55.80
2022-12-04T07:46:46.034Z,61.83
2022-12-04T07:51:44.187Z,57.40
2022-12-04T07:56:43.712Z,52.40
2022-12-04T08:01:41.894Z,56.13
2022-12-04T08:06:40.586Z,62.10
2022-12-04T08:11:38.865Z,54.07
2022-12-04T08:16:38.539Z,63.70
2022-12-04T08:21:36.802Z,58.10
2022-12-04T08:26:35.043Z,56.70
2022-12-04T08:31:35.628Z,56.70
2022-12-04T08:36:36.036Z,59.27
2022-12-04T08:41:34.238Z,55.27
2022-12-04T08:46:32.430Z,62.73
2022-12-04T08:51:34.518Z,63.53
2022-12-04T08:56:35.068Z,68.07
2022-12-04T09:01:33.404Z,63.90
2022-12-04T09:06:31.805Z,62.97
2022-12-04T09:11:32.359Z,53.60
2022-12-04T09:16:32.201Z,59.50
2022-12-04T09:21:30.493Z,60.17
2022-12-04T09:26:30.780Z,52.77
2022-12-04T09:31:29.589Z,52.60
2022-12-04T09:36:29.208Z,57.87
2022-12-04T09:42:09.111Z,61.47
2022-12-04T09:47:13.374Z,52.40
2022-12-04T09:52:30.986Z,61.03
2022-12-04T09:57:37.209Z,58.43
2022-12-04T10:02:38.557Z,60.90
2022-12-04T10:07:52.034Z,59.80
2022-12-04T10:12:59.991Z,58.83
2022-12-04T10:24:51.180Z,51.63
2022-12-04T10:29:54.574Z,61.80
2022-12-04T10:34:56.334Z,55.17
2022-12-04T10:39:59.352Z,56.23
2022-12-04T10:44:57.853Z,44.70
2022-12-04T10:50:01.344Z,56.53
2022-12-04T10:55:02.745Z,54.10
2022-12-04T11:00:01.533Z,53.07
2022-12-04T11:05:02.764Z,54.47
2022-12-04T11:10:05.773Z,45.30
2022-12-04T11:15:14.859Z,49.83
2022-12-04T11:20:17.814Z,48.37
2022-12-04T11:25:20.445Z,45.97
2022-12-04T11:30:25.954Z,53.20
2022-12-04T11:35:26.820Z,49.73
2022-12-04T11:40:27.771Z,46.50
2022-12-04T11:45:26.170Z,50.00
2022-12-04T11:50:33.516Z,51.17
2022-12-04T11:55:43.039Z,47.90
2022-12-04T12:00:49.927Z,52.40
2022-12-04T12:06:26.934Z,44.43
2022-12-04T12:11:32.192Z,49.87
2022-12-04T12:16:43.935Z,44.83
2022-12-04T12:21:54.506Z,41.93
2022-12-04T12:27:07.407Z,40.83
2022-12-04T12:32:32.825Z,54.60
2022-12-04T12:37:41.072Z,49.20
2022-12-04T12:42:45.924Z,45.00
2022-12-04T12:47:49.016Z,44.70
2022-12-04T12:52:55.519Z,46.63
2022-12-04T12:58:01.889Z,40.40
2022-12-04T13:03:04.850Z,46.00
2022-12-04T13:08:11.834Z,48.47
2022-12-04T13:13:15.366Z,47.37
2022-12-04T13:18:22.546Z,44.17
2022-12-04T13:23:54.403Z,45.67
2022-12-04T13:28:58.848Z,42.43
2022-12-04T13:34:12.348Z,45.10
2022-12-04T13:39:39.139Z,50.83
2022-12-04T13:44:38.666Z,35.53
2022-12-04T13:49:38.345Z,47.40
2022-12-04T13:54:37.780Z,44.53
2022-12-04T13:59:39.909Z,45.13
2022-12-04T14:04:42.860Z,38.47
2022-12-04T14:09:45.198Z,37.63
2022-12-04T14:14:46.961Z,45.17
2022-12-04T14:19:52.270Z,42.63
2022-12-04T14:24:51.535Z,45.97
2022-12-04T14:29:55.782Z,48.80
2022-12-04T14:34:55.028Z,48.83
2022-12-04T14:39:54.594Z,52.50
2022-12-04T14:44:57.088Z,47.97
2022-12-04T14:50:26.510Z,51.90
2022-12-04T14:55:36.862Z,45.40
2022-12-04T15:00:36.392Z,45.23
2022-12-04T15:05:34.595Z,52.90
2022-12-04T15:10:52.192Z,50.27
2022-12-04T15:15:52.654Z,50.73
2022-12-04T15:20:57.647Z,52.40
2022-12-04T15:25:57.547Z,49.93
2022-12-04T15:30:58.401Z,52.67
2022-12-04T15:36:01.081Z,54.23
2022-12-04T15:41:01.771Z,50.97
2022-12-04T15:46:01.607Z,53.07
2022-12-04T15:51:03.004Z,59.70
2022-12-04T15:56:04.730Z,50.67
2022-12-04T16:01:07.287Z,54.60
2022-12-04T16:06:08.042Z,54.60
2022-12-04T16:11:22.753Z,49.00
2022-12-04T16:16:23.351Z,62.33
2022-12-04T16:21:25.837Z,52.10
2022-12-04T16:26:24.039Z,49.10
2022-12-04T16:31:24.682Z,40.57
2022-12-04T16:36:22.925Z,45.27
2022-12-04T16:41:21.820Z,39.07
2022-12-04T16:46:21.383Z,46.10
2022-12-04T16:51:22.677Z,37.87
2022-12-04T16:56:21.695Z,45.13
2022-12-04T17:01:23.522Z,42.17
2022-12-04T17:06:23.320Z,44.60
2022-12-04T17:11:21.510Z,39.97
2022-12-04T17:16:20.162Z,37.67
2022-12-04T17:21:18.770Z,38.83
2022-12-04T17:26:18.299Z,37.50
2022-12-04T17:31:19.573Z,36.60
2022-12-04T17:36:20.034Z,36.37
2022-12-04T17:41:19.547Z,39.17
2022-12-04T17:46:21.554Z,36.93
2022-12-04T17:51:22.385Z,41.33
2022-12-04T17:56:23.471Z,40.60
2022-12-04T18:01:23.549Z,38.80
2022-12-04T18:06:23.385Z,33.80
2022-12-04T18:11:25.441Z,38.63
2022-12-04T18:16:23.856Z,32.13
2022-12-04T18:21:22.331Z,30.43
2022-12-04T18:26:23.508Z,31.53
2022-12-04T18:31:21.930Z,34.87
2022-12-04T18:36:22.228Z,33.13
2022-12-04T18:41:20.496Z,31.40
2022-12-04T18:46:21.383Z,36.77
2022-12-04T18:51:23.049Z,31.93
2022-12-04T18:56:21.602Z,28.83
2022-12-04T19:02:21.190Z,36.73
2022-12-04T19:07:20.801Z,33.33
2022-12-04T19:12:18.973Z,40.90
2022-12-04T19:17:17.229Z,31.50
2022-12-04T19:22:15.694Z,37.97
2022-12-04T19:27:15.312Z,37.13
2022-12-04T19:32:13.489Z,35.73
2022-12-04T19:37:11.735Z,34.20
2022-12-04T19:42:10.772Z,33.20
2022-12-04T19:47:10.321Z,36.80
2022-12-04T19:52:08.541Z,37.00
2022-12-04T19:57:06.706Z,34.80
2022-12-04T20:02:04.908Z,34.70
2022-12-04T20:07:05.641Z,33.10
2022-12-04T20:12:04.030Z,37.63
2022-12-04T20:17:03.947Z,36.77
2022-12-04T20:22:02.397Z,39.27
2022-12-04T20:27:03.243Z,35.43
2022-12-04T20:32:01.454Z,29.93
2022-12-04T20:43:50.192Z,34.60
2022-12-04T20:48:49.905Z,29.13
2022-12-04T20:53:49.873Z,35.00
2022-12-04T21:05:49.889Z,32.77
2022-12-04T21:10:48.035Z,34.73
2022-12-04T21:16:05.504Z,32.10
2022-12-04T21:21:05.462Z,36.87
2022-12-04T21:26:03.587Z,40.10
2022-12-04T21:31:02.989Z,37.47
2022-12-04T21:36:07.251Z,37.00
2022-12-04T21:47:54.192Z,29.30
2022-12-04T21:52:55.494Z,29.63
2022-12-04T21:57:53.622Z,32.40
2022-12-04T22:02:51.825Z,38.50
2022-12-04T22:07:50.098Z,35.60
2022-12-04T22:12:50.622Z,35.30
2022-12-04T22:17:49.052Z,28.73
2022-12-04T22:22:47.274Z,33.97
2022-12-04T22:27:45.459Z,36.90
2022-12-04T22:32:45.155Z,36.03
2022-12-04T22:37:44.677Z,36.03
2022-12-04T22:42:43.256Z,39.33
2022-12-04T22:54:39.573Z,48.80
2022-12-04T23:00:39.304Z,34.80
2022-12-04T23:05:37.978Z,35.07
2022-12-04T23:11:05.167Z,45.47
2022-12-04T23:16:38.928Z,43.70
2022-12-04T23:21:37.418Z,45.33
2022-12-04T23:26:38.959Z,42.83
2022-12-04T23:32:37.793Z,46.87
2022-12-04T23:37:36.055Z,44.20
2022-12-04T23:42:35.787Z,49.83
2022-12-04T23:47:34.164Z,46.10
2022-12-04T23:52:32.400Z,51.17
2022-12-04T23:57:30.745Z,52.50
